Estación de El Tambo INIA

Ultimos registro cada 15 minutos 57
Estación Fecha / Hora Temperatura Humedad Lluvia Velocidad Dirección Radiación Presion
57 El Tambo INIA 03-09-2026 14:00 17,6 50,4 0 2,4 99 618,5 992
56 El Tambo INIA 03-09-2026 13:45 17,3 52,6 0 2,6 123 630,3 993
55 El Tambo INIA 03-09-2026 13:30 17 54 0 2,6 113 640,6 993
54 El Tambo INIA 03-09-2026 13:15 16,8 54,5 0 2,6 108 648,8 993
53 El Tambo INIA 03-09-2026 13:00 16,6 56,8 0 2,5 105 651,1 993
52 El Tambo INIA 03-09-2026 12:45 16 60,1 0 2,2 100 650,8 993
51 El Tambo INIA 03-09-2026 12:30 15,7 60,9 0 2,4 99 647,2 994
50 El Tambo INIA 03-09-2026 12:15 15,3 62,7 0 2,2 83 643,5 994
49 El Tambo INIA 03-09-2026 12:00 14,9 62,8 0 2,2 88 633,9 994
48 El Tambo INIA 03-09-2026 11:45 14,8 65,1 0 2,2 96 620,3 994
47 El Tambo INIA 03-09-2026 11:30 14,6 65,9 0 2,4 92 604,5 994
46 El Tambo INIA 03-09-2026 11:15 14,5 64,8 0 2,4 92 638,4 994
45 El Tambo INIA 03-09-2026 11:00 14,3 66 0 2,3 107 635,9 994
44 El Tambo INIA 03-09-2026 10:45 14,1 65,6 0 2,1 107 523,8 994
43 El Tambo INIA 03-09-2026 10:30 13,7 66,6 0 2,6 111 489 994
42 El Tambo INIA 03-09-2026 10:15 13,5 68,5 0 2,6 114 469,1 994
41 El Tambo INIA 03-09-2026 10:00 13,1 68,8 0 2,4 116 348,7 994
40 El Tambo INIA 03-09-2026 09:45 12,9 72,3 0 2,6 119 465,4 994
39 El Tambo INIA 03-09-2026 09:30 12,4 74 0 2,6 109 424,5 994
38 El Tambo INIA 03-09-2026 09:15 12,4 73,6 0 2,4 108 356,5 994
37 El Tambo INIA 03-09-2026 09:00 12 74,5 0 1,6 96 276,4 993
36 El Tambo INIA 03-09-2026 08:45 11,6 77,4 0 1,6 92 239,9 994
35 El Tambo INIA 03-09-2026 08:30 11 79,3 0 1,7 72 193,9 993
34 El Tambo INIA 03-09-2026 08:15 10,3 82,6 0 1,3 60 124,6 993
33 El Tambo INIA 03-09-2026 08:00 10 85,2 0 1,2 67 28,5 993
32 El Tambo INIA 03-09-2026 07:45 10 84,7 0 1,1 74 38,5 993
31 El Tambo INIA 03-09-2026 07:30 9,9 84,9 0 0,9 103 10,9 993
30 El Tambo INIA 03-09-2026 07:15 10,1 84,3 0 1,2 106 4,5 993
29 El Tambo INIA 03-09-2026 07:00 10,1 84,2 0 1,4 121 1,5 993
28 El Tambo INIA 03-09-2026 06:45 9,9 84,5 0 1,4 117 0,2 993
27 El Tambo INIA 03-09-2026 06:30 10,1 84,2 0 1,2 104 0 993
26 El Tambo INIA 03-09-2026 06:15 10,3 83,5 0 1,6 100 0 992
25 El Tambo INIA 03-09-2026 06:00 10,3 82,8 0 1,8 106 0 992
24 El Tambo INIA 03-09-2026 05:45 10,4 82,8 0 1,8 104 0 992
23 El Tambo INIA 03-09-2026 05:30 10,8 82,1 0 1,8 103 0 992
22 El Tambo INIA 03-09-2026 05:15 11,1 81,9 0 1,9 116 0 992
21 El Tambo INIA 03-09-2026 05:00 11,5 81,2 0 1,8 112 0 992
20 El Tambo INIA 03-09-2026 04:45 11,4 80,7 0 1,3 113 0 992
19 El Tambo INIA 03-09-2026 04:30 11,4 82,7 0 1,6 115 0 992
18 El Tambo INIA 03-09-2026 04:15 11,5 82,8 0 1,9 120 0 992
17 El Tambo INIA 03-09-2026 04:00 11,5 83 0 2 119 0 992
16 El Tambo INIA 03-09-2026 03:45 12 84,3 0 1,9 112 0 992
15 El Tambo INIA 03-09-2026 03:30 12,6 82,3 0 1,5 111 0 992
14 El Tambo INIA 03-09-2026 03:15 12,8 80,4 0 1,7 120 0 992
13 El Tambo INIA 03-09-2026 03:00 13 79 0 1,5 113 0 992
12 El Tambo INIA 03-09-2026 02:45 13,1 77,1 0 1,3 119 0 992
11 El Tambo INIA 03-09-2026 02:30 13,4 76,2 0 0,9 117 0 992
10 El Tambo INIA 03-09-2026 02:15 13,6 81,1 0 0 116 0 992
9 El Tambo INIA 03-09-2026 02:00 13,6 82,4 0 0 82 0 992
8 El Tambo INIA 03-09-2026 01:45 13,6 81,1 0 0 94 0 992
7 El Tambo INIA 03-09-2026 01:30 13,5 86,1 0 0,1 196 0 992
6 El Tambo INIA 03-09-2026 01:15 13,7 86,3 0 0 0 0 992
5 El Tambo INIA 03-09-2026 01:00 13,6 81,2 0 0,1 102 0 992
4 El Tambo INIA 03-09-2026 00:45 13,6 83,2 0 0 60 0 992
3 El Tambo INIA 03-09-2026 00:30 13,6 86,1 0 0 0 0 992
2 El Tambo INIA 03-09-2026 00:15 13,7 86,2 0 0 0 0 992
1 El Tambo INIA 03-09-2026 00:00 13,8 84,7 0 0 0 0 992